Winamac, IN (46996)

10:58 PM EST on February 13, 2016 (GMT -0500)
East of Town | | Change Station
CLOSE
Current Station
Personal Weather Station
Location: North Judson, IN
Elevation: 700 ft
Nearby Weather Stations

Elev 700 ft 41.24 °N, 86.72 °W | Updated 2 minutes ago

Partly Cloudy
Partly Cloudy
2.6 °F
Feels Like 3 °F
N
0.0
Wind Variable Wind from ENE
Gusts 22.0 mph

Today
High -- | Low -- °F
--% Chance of Precip.
Yesterday
High -- | Low -- °F
Precip. -- in
Pressure 30.50 in
Visibility 10.0 miles
Clouds Clear
Windchill 3 °F
Dew Point -1 °F
Humidity 86%
Rainfall 0.00 in
Snow Depth Not available.
7:44 AM 6:17 PM
Waxing Crescent, 37% visible
METAR KOXI 140335Z AUTO 00000KT 10SM CLR M16/M18 A3050 RMK AO1
Pressure 30.50 in
Visibility 10.0 miles
Clouds Clear
Windchill 3 °F
Dew Point -1 °F
Humidity 86%
Rainfall 0.00 in
Snow Depth Not available.
7:44 AM 6:17 PM
Waxing Crescent, 37% visible
METAR KOXI 140335Z AUTO 00000KT 10SM CLR M16/M18 A3050 RMK AO1

10-Day Weather Forecast

Almanac

Astronomy

Feb. 13, 2016 Rise Set
Actual Time
Civil Twilight
Nautical Twilight
Astronomical Twilight
Moon
Length of Visible Light
Length of Day
Tomorrow will be .
, % of the Moon is Illuminated

Today's Extremes

State Highs State Lows

Community

WunderPhotos

Upload Photos

1,892,738 photos uploaded!

WunderBlog® & News

Nearby

Air Quality

  Air Quality AQ Index Pollutant
Not available.

Snow Depth

Station Depth Elevation

Earthquake Activity

City Distance Mag. Time & Date
Minimum magnitude displayed is 2.5.

Coastal Water Temperatures

Place Temperature

Stations

Nearby Weather Stations

Station Location Temp. Windchill Dew Point Humidity Wind Precip. Elev Updated Type
                   

Watches & Warnings

There are currently no watches in effect.